createdAt,value
2022-09-28T00:00:41.081Z,6.88
2022-09-28T00:01:41.327Z,6.72
2022-09-28T00:02:41.410Z,7.04
2022-09-28T00:03:41.486Z,6.8
2022-09-28T00:04:41.586Z,6.88
2022-09-28T00:05:41.733Z,6.64
2022-09-28T00:06:41.842Z,6.72
2022-09-28T00:07:41.991Z,6.88
2022-09-28T00:08:42.145Z,6.88
2022-09-28T00:09:42.289Z,6.64
2022-09-28T00:10:42.443Z,6.72
2022-09-28T00:11:42.598Z,6.88
2022-09-28T00:12:42.746Z,6.72
2022-09-28T00:13:42.907Z,6.88
2022-09-28T00:14:43.049Z,6.72
2022-09-28T00:15:43.199Z,6.72
2022-09-28T00:16:43.373Z,6.64
2022-09-28T00:17:43.458Z,6.4
2022-09-28T00:18:43.556Z,6.24
2022-09-28T00:19:43.667Z,6.64
2022-09-28T00:20:43.760Z,6.48
2022-09-28T00:21:43.918Z,6.8
2022-09-28T00:22:44.063Z,6.48
2022-09-28T00:23:44.212Z,6.64
2022-09-28T00:24:44.380Z,6.4
2022-09-28T00:25:44.524Z,6.48
2022-09-28T00:26:44.672Z,6.8
2022-09-28T00:27:44.827Z,6.8
2022-09-28T00:28:44.988Z,6.72
2022-09-28T00:29:45.125Z,6.64
2022-09-28T00:30:45.276Z,6.48
2022-09-28T00:31:45.508Z,6.4
2022-09-28T00:32:45.581Z,6.72
2022-09-28T00:33:45.731Z,6.8
2022-09-28T00:34:45.977Z,6.48
2022-09-28T00:35:46.034Z,6.64
2022-09-28T00:36:46.171Z,6.64
2022-09-28T00:37:46.295Z,6.48
2022-09-28T00:38:46.437Z,6.72
2022-09-28T00:39:46.542Z,6.64
2022-09-28T00:40:46.751Z,7.04
2022-09-28T00:41:46.850Z,6.88
2022-09-28T00:42:46.999Z,6.64
2022-09-28T00:43:47.155Z,6.8
2022-09-28T00:44:47.258Z,6.88
2022-09-28T00:45:47.396Z,7.04
2022-09-28T00:46:47.455Z,6.8
2022-09-28T00:47:47.610Z,6.88
2022-09-28T00:48:47.761Z,7.04
2022-09-28T00:49:47.910Z,6.88
2022-09-28T00:50:48.073Z,7.12
2022-09-28T00:51:48.217Z,7.12
2022-09-28T00:52:48.370Z,7.12
2022-09-28T00:53:48.523Z,7.2
2022-09-28T00:54:48.667Z,7.12
2022-09-28T00:55:48.772Z,7.12
2022-09-28T00:56:48.924Z,7.28
2022-09-28T00:57:49.028Z,7.04
2022-09-28T00:58:49.180Z,7.2
2022-09-28T00:59:49.345Z,7.2
2022-09-28T01:00:49.554Z,7.2
2022-09-28T01:01:49.673Z,7.2
2022-09-28T01:02:49.784Z,7.28
2022-09-28T01:03:49.944Z,7.28
2022-09-28T01:04:50.092Z,7.28
2022-09-28T01:05:50.237Z,7.12
2022-09-28T01:06:50.394Z,7.12
2022-09-28T01:07:50.499Z,7.28
2022-09-28T01:08:50.652Z,7.2
2022-09-28T01:09:50.754Z,7.12
2022-09-28T01:10:50.849Z,7.04
2022-09-28T01:11:51.001Z,7.12
2022-09-28T01:12:51.153Z,7.2
2022-09-28T01:13:51.304Z,7.04
2022-09-28T01:14:51.451Z,7.12
2022-09-28T01:15:51.706Z,7.12
2022-09-28T01:16:51.759Z,7.04
2022-09-28T01:17:51.861Z,7.04
2022-09-28T01:18:51.968Z,6.8
2022-09-28T01:19:52.073Z,6.8
2022-09-28T01:20:52.169Z,7.04
2022-09-28T01:21:52.322Z,7.04
2022-09-28T01:22:52.471Z,6.88
2022-09-28T01:23:52.629Z,7.04
2022-09-28T01:24:52.774Z,6.88
2022-09-28T01:25:52.923Z,6.88
2022-09-28T01:26:53.088Z,6.88
2022-09-28T01:27:53.279Z,6.8
2022-09-28T01:28:53.363Z,6.72
2022-09-28T01:29:53.485Z,6.88
2022-09-28T01:30:53.633Z,7.12
2022-09-28T01:31:53.825Z,6.88
2022-09-28T01:32:53.883Z,7.2
2022-09-28T01:33:54.045Z,7.04
2022-09-28T01:34:54.245Z,6.8
2022-09-28T01:35:54.346Z,6.8
2022-09-28T01:36:54.498Z,6.88
2022-09-28T01:37:54.646Z,7.04
2022-09-28T01:38:54.801Z,7.04
2022-09-28T01:39:54.951Z,7.04
2022-09-28T01:40:55.158Z,6.88
2022-09-28T01:41:55.248Z,6.8
2022-09-28T01:42:55.409Z,6.88
2022-09-28T01:43:55.568Z,7.12
2022-09-28T01:44:55.709Z,7.12
2022-09-28T01:45:55.883Z,7.2
2022-09-28T01:46:55.960Z,7.12
2022-09-28T01:47:56.120Z,7.04
2022-09-28T01:48:56.272Z,7.12
2022-09-28T01:49:56.421Z,7.12
2022-09-28T01:50:56.566Z,7.04
2022-09-28T01:51:56.674Z,7.04
2022-09-28T01:52:56.828Z,6.88
2022-09-28T01:53:56.978Z,7.04
2022-09-28T01:54:57.134Z,7.04
2022-09-28T01:55:57.281Z,7.2
2022-09-28T01:56:57.379Z,7.2
2022-09-28T01:57:57.535Z,7.28
2022-09-28T01:58:57.641Z,7.2
2022-09-28T01:59:57.743Z,7.12
2022-09-28T02:00:57.930Z,7.12
2022-09-28T02:01:58.101Z,7.04
2022-09-28T02:02:58.196Z,7.2
2022-09-28T02:03:58.346Z,7.12
2022-09-28T02:04:58.495Z,7.28
2022-09-28T02:05:58.649Z,7.12
2022-09-28T02:06:58.798Z,7.12
2022-09-28T02:07:58.898Z,7.12
2022-09-28T02:08:59.054Z,7.28
2022-09-28T02:09:59.204Z,7.2
2022-09-28T02:10:59.308Z,7.28
2022-09-28T02:11:59.453Z,7.12
2022-09-28T02:12:59.614Z,7.2
2022-09-28T02:13:59.762Z,7.12
2022-09-28T02:14:59.921Z,7.04
2022-09-28T02:16:00.114Z,7.04
2022-09-28T02:17:00.166Z,7.04
2022-09-28T02:18:00.313Z,7.04
2022-09-28T02:19:00.472Z,7.04
2022-09-28T02:20:00.621Z,7.2
2022-09-28T02:21:00.773Z,7.04
2022-09-28T02:22:00.923Z,7.12
2022-09-28T02:23:01.080Z,7.12
2022-09-28T02:24:01.232Z,7.2
2022-09-28T02:25:01.332Z,7.12
2022-09-28T02:26:02.110Z,7.04
2022-09-28T02:27:01.634Z,6.8
2022-09-28T02:28:01.745Z,6.8
2022-09-28T02:29:01.893Z,6.48
2022-09-28T02:30:02.008Z,6.32
2022-09-28T02:31:02.335Z,6.4
2022-09-28T02:32:02.242Z,6.4
2022-09-28T02:33:02.390Z,6.4
2022-09-28T02:34:02.540Z,6.32
2022-09-28T02:35:02.699Z,6.4
2022-09-28T02:36:02.795Z,6.4
2022-09-28T02:37:02.948Z,6.48
2022-09-28T02:38:03.105Z,6.64
2022-09-28T02:39:03.216Z,6.72
2022-09-28T02:40:03.406Z,6.64
2022-09-28T02:41:03.512Z,6.64
2022-09-28T02:42:03.655Z,6.64
2022-09-28T02:43:03.812Z,6.48
2022-09-28T02:44:03.917Z,6.48
2022-09-28T02:45:04.076Z,6.48
2022-09-28T02:46:04.273Z,6.64
2022-09-28T02:47:04.314Z,6.8
2022-09-28T02:48:04.500Z,6.72
2022-09-28T02:49:20.732Z,6.48
2022-09-28T02:50:04.785Z,6.24
2022-09-28T02:51:04.878Z,6.32
2022-09-28T02:52:05.024Z,6.24
2022-09-28T02:53:05.175Z,6.24
2022-09-28T02:54:05.328Z,6.24
2022-09-28T02:55:05.428Z,6.24
2022-09-28T02:56:05.582Z,6.08
2022-09-28T02:57:05.734Z,6.24
2022-09-28T02:58:05.839Z,6.32
2022-09-28T02:59:05.992Z,6.32
2022-09-28T03:00:06.150Z,6.4
2022-09-28T03:01:06.318Z,6.32
2022-09-28T03:02:06.524Z,6.4
2022-09-28T03:03:06.552Z,6.4
2022-09-28T03:04:06.696Z,6.32
2022-09-28T03:05:06.852Z,6.32
2022-09-28T03:06:06.998Z,6.08
2022-09-28T03:07:07.152Z,6.08
2022-09-28T03:08:07.303Z,6.24
2022-09-28T03:09:07.407Z,6.32
2022-09-28T03:10:07.556Z,6.4
2022-09-28T03:11:07.708Z,6.4
2022-09-28T03:12:07.864Z,6.48
2022-09-28T03:13:08.020Z,6.4
2022-09-28T03:14:08.171Z,6.48
2022-09-28T03:15:08.316Z,6.48
2022-09-28T03:16:08.555Z,6.48
2022-09-28T03:17:08.568Z,6.64
2022-09-28T03:18:08.726Z,6.48
2022-09-28T03:19:08.877Z,6.4
2022-09-28T03:20:09.027Z,6.48
2022-09-28T03:21:09.184Z,6.4
2022-09-28T03:22:09.328Z,6.48
2022-09-28T03:23:24.194Z,6.48
2022-09-28T03:24:09.529Z,6.72
2022-09-28T03:25:09.685Z,6.72
2022-09-28T03:26:09.831Z,6.8
2022-09-28T03:27:09.933Z,6.88
2022-09-28T03:28:10.089Z,6.8
2022-09-28T03:29:10.329Z,6.72
2022-09-28T03:30:10.407Z,6.64
2022-09-28T03:31:10.659Z,6.48
2022-09-28T03:32:10.648Z,6.64
2022-09-28T03:33:10.798Z,6.48
2022-09-28T03:34:10.908Z,6.48
2022-09-28T03:35:11.051Z,6.48
2022-09-28T03:36:11.208Z,6.4
2022-09-28T03:37:11.357Z,6.4
2022-09-28T03:38:11.501Z,6.32
2022-09-28T03:39:11.664Z,6.4
2022-09-28T03:40:11.809Z,6.48
2022-09-28T03:41:11.961Z,6.32
2022-09-28T03:42:12.108Z,6
2022-09-28T03:43:12.260Z,6
2022-09-28T03:44:12.421Z,5.92
2022-09-28T03:45:12.585Z,6
2022-09-28T03:46:12.691Z,6
2022-09-28T03:47:12.765Z,6.08
2022-09-28T03:48:12.923Z,5.92
2022-09-28T03:49:13.022Z,6.32
2022-09-28T03:50:13.135Z,6.48
2022-09-28T03:51:13.284Z,6.4
2022-09-28T03:52:13.426Z,6.4
2022-09-28T03:53:13.584Z,6.32
2022-09-28T03:54:13.684Z,6.08
2022-09-28T03:55:13.835Z,6.24
2022-09-28T03:56:13.989Z,6.08
2022-09-28T03:57:14.140Z,5.92
2022-09-28T03:58:14.293Z,6
2022-09-28T03:59:14.488Z,5.68
2022-09-28T04:00:14.606Z,5.52
2022-09-28T04:01:17.185Z,5.68
2022-09-28T04:02:14.909Z,6.08
2022-09-28T04:03:15.001Z,6.24
2022-09-28T04:04:15.148Z,6.24
2022-09-28T04:05:15.254Z,6.32
2022-09-28T04:06:15.402Z,6.24
2022-09-28T04:07:15.562Z,6
2022-09-28T04:08:15.678Z,5.84
2022-09-28T04:09:15.853Z,5.84
2022-09-28T04:10:15.991Z,5.84
2022-09-28T04:11:16.169Z,5.84
2022-09-28T04:12:16.319Z,5.84
2022-09-28T04:13:16.516Z,5.84
2022-09-28T04:14:16.616Z,5.92
2022-09-28T04:15:16.770Z,5.92
2022-09-28T04:16:16.972Z,6.08
2022-09-28T04:17:17.069Z,6.24
2022-09-28T04:18:17.225Z,5.92
2022-09-28T04:19:17.467Z,6
2022-09-28T04:20:17.487Z,6.08
2022-09-28T04:21:17.634Z,6
2022-09-28T04:22:17.780Z,5.92
2022-09-28T04:23:17.937Z,6
2022-09-28T04:24:18.085Z,6.4
2022-09-28T04:25:18.244Z,6
2022-09-28T04:26:18.359Z,6.4
2022-09-28T04:27:18.493Z,6.4
2022-09-28T04:28:18.643Z,6.48
2022-09-28T04:29:19.306Z,6.48
2022-09-28T04:30:18.949Z,6.48
2022-09-28T04:31:19.151Z,6.48
2022-09-28T04:32:19.255Z,6.48
2022-09-28T04:33:19.404Z,6.64
2022-09-28T04:34:19.552Z,6.4
2022-09-28T04:35:19.703Z,6.64
2022-09-28T04:36:19.876Z,6.72
2022-09-28T04:37:20.011Z,6.72
2022-09-28T04:38:30.778Z,6.72
2022-09-28T04:39:20.319Z,6.8
2022-09-28T04:40:20.473Z,6.72
2022-09-28T04:41:20.622Z,6.8
2022-09-28T04:42:20.724Z,6.8
2022-09-28T04:43:20.866Z,6.8
2022-09-28T04:44:20.985Z,6.24
2022-09-28T04:45:21.106Z,6
2022-09-28T04:46:21.274Z,6.08
2022-09-28T04:47:21.422Z,6.4
2022-09-28T04:48:21.520Z,6.4
2022-09-28T04:49:21.680Z,6.4
2022-09-28T04:50:21.829Z,6.64
2022-09-28T04:51:22.024Z,6.8
2022-09-28T04:52:22.134Z,6.8
2022-09-28T04:53:22.282Z,6.8
2022-09-28T04:54:22.437Z,6.88
2022-09-28T04:55:22.585Z,6.72
2022-09-28T04:56:22.742Z,6.88
2022-09-28T04:57:22.894Z,6.8
2022-09-28T04:58:23.055Z,6.64
2022-09-28T04:59:23.149Z,6.72
2022-09-28T05:00:23.298Z,6.8
2022-09-28T05:01:23.796Z,6.8
2022-09-28T05:02:23.526Z,6.8
2022-09-28T05:03:23.657Z,6.8
2022-09-28T05:04:26.072Z,6.88
2022-09-28T05:05:23.954Z,7.04
2022-09-28T05:06:24.113Z,7.04
2022-09-28T05:07:24.256Z,7.12
2022-09-28T05:08:24.359Z,7.12
2022-09-28T05:09:24.514Z,7.12
2022-09-28T05:10:24.662Z,7.04
2022-09-28T05:11:24.815Z,6.8
2022-09-28T05:12:24.967Z,6.88
2022-09-28T05:13:25.078Z,7.04
2022-09-28T05:14:25.615Z,6.88
2022-09-28T05:15:25.643Z,6.8
2022-09-28T05:16:25.972Z,6.88
2022-09-28T05:17:26.034Z,6.88
2022-09-28T05:18:25.790Z,6.88
2022-09-28T05:19:25.924Z,7.04
2022-09-28T05:20:26.096Z,7.12
2022-09-28T05:21:26.241Z,7.2
2022-09-28T05:22:26.388Z,7.12
2022-09-28T05:23:26.756Z,7.04
2022-09-28T05:24:26.937Z,6.88
2022-09-28T05:25:26.887Z,6.88
2022-09-28T05:26:27.035Z,7.04
2022-09-28T05:27:27.149Z,7.04
2022-09-28T05:28:27.246Z,7.04
2022-09-28T05:29:31.407Z,7.04
2022-09-28T05:30:27.603Z,7.04
2022-09-28T05:31:27.805Z,6.88
2022-09-28T05:32:27.905Z,7.04
2022-09-28T05:33:28.056Z,7.04
2022-09-28T05:34:28.247Z,7.04
2022-09-28T05:35:28.353Z,7.04
2022-09-28T05:36:28.514Z,6.88
2022-09-28T05:37:28.616Z,7.04
2022-09-28T05:38:28.767Z,6.88
2022-09-28T05:39:28.914Z,7.04
2022-09-28T05:40:29.057Z,6.88
2022-09-28T05:41:29.232Z,7.04
2022-09-28T05:42:29.370Z,6.88
2022-09-28T05:43:29.471Z,7.04
2022-09-28T05:44:29.663Z,6.88
2022-09-28T05:45:29.877Z,6.88
2022-09-28T05:46:30.029Z,6.88
2022-09-28T05:47:30.160Z,6.8
2022-09-28T05:48:30.477Z,6.88
2022-09-28T05:49:30.489Z,6.8
2022-09-28T05:50:30.747Z,6.8
2022-09-28T05:51:30.744Z,6.88
2022-09-28T05:52:30.906Z,7.12
2022-09-28T05:53:31.096Z,7.12
2022-09-28T05:54:31.293Z,7.12
2022-09-28T05:55:31.468Z,7.12
2022-09-28T05:56:31.595Z,7.12
2022-09-28T05:57:31.708Z,7.2
2022-09-28T05:58:31.972Z,7.28
2022-09-28T05:59:31.995Z,7.28
2022-09-28T06:00:32.146Z,7.28
2022-09-28T06:01:32.386Z,7.2
2022-09-28T06:02:32.531Z,7.12
2022-09-28T06:03:32.521Z,7.12
2022-09-28T06:04:32.662Z,7.2
2022-09-28T06:05:32.816Z,7.2
2022-09-28T06:06:33.155Z,7.2
2022-09-28T06:07:33.087Z,7.2
2022-09-28T06:08:33.324Z,7.28
2022-09-28T06:09:33.432Z,7.44
2022-09-28T06:10:33.676Z,7.44
2022-09-28T06:11:33.776Z,7.44
2022-09-28T06:12:33.867Z,7.28
2022-09-28T06:13:33.993Z,7.28
2022-09-28T06:14:34.129Z,7.2
2022-09-28T06:15:34.299Z,7.28
2022-09-28T06:16:34.417Z,7.2
2022-09-28T06:17:34.528Z,7.28
2022-09-28T06:18:34.691Z,7.28
2022-09-28T06:19:34.862Z,7.28
2022-09-28T06:20:34.890Z,7.28
2022-09-28T06:21:35.051Z,7.44
2022-09-28T06:22:35.265Z,7.52
2022-09-28T06:23:35.345Z,7.44
2022-09-28T06:24:35.485Z,7.52
2022-09-28T06:25:35.646Z,7.52
2022-09-28T06:26:35.810Z,7.52
2022-09-28T06:27:35.987Z,7.52
2022-09-28T06:28:36.147Z,7.52
2022-09-28T06:29:36.298Z,7.52
2022-09-28T06:30:36.434Z,7.44
2022-09-28T06:31:36.553Z,7.52
2022-09-28T06:32:36.685Z,7.44
2022-09-28T06:33:36.754Z,7.44
2022-09-28T06:34:36.913Z,7.2
2022-09-28T06:35:37.015Z,7.44
2022-09-28T06:36:37.113Z,7.28
2022-09-28T06:37:37.263Z,7.6
2022-09-28T06:38:37.422Z,7.28
2022-09-28T06:39:37.563Z,7.28
2022-09-28T06:40:37.763Z,7.12
2022-09-28T06:41:37.870Z,7.12
2022-09-28T06:42:37.970Z,7.12
2022-09-28T06:43:38.072Z,7.04
2022-09-28T06:44:38.237Z,7.12
2022-09-28T06:45:38.394Z,7.12
2022-09-28T06:46:40.008Z,7.2
2022-09-28T06:47:38.784Z,7.2
2022-09-28T06:48:38.891Z,7.2
2022-09-28T06:49:39.040Z,7.2
2022-09-28T06:50:39.146Z,7.12
2022-09-28T06:51:39.285Z,7.12
2022-09-28T06:52:39.439Z,7.04
2022-09-28T06:53:39.789Z,7.04
2022-09-28T06:54:39.898Z,7.04
2022-09-28T06:55:40.045Z,7.04
2022-09-28T06:56:40.150Z,6.88
2022-09-28T06:57:40.304Z,6.88
2022-09-28T06:58:40.396Z,7.04
2022-09-28T06:59:40.548Z,7.04
2022-09-28T07:00:40.707Z,6.88
2022-09-28T07:01:40.843Z,7.04
2022-09-28T07:02:40.948Z,7.04
2022-09-28T07:03:41.000Z,7.04
2022-09-28T07:04:41.160Z,7.04
2022-09-28T07:05:41.263Z,7.04
2022-09-28T07:06:41.411Z,6.88
2022-09-28T07:07:41.567Z,7.04
2022-09-28T07:08:41.662Z,6.8
2022-09-28T07:09:45.062Z,6.88
2022-09-28T07:10:41.873Z,7.04
2022-09-28T07:11:41.985Z,6.88
2022-09-28T07:12:42.086Z,6.88
2022-09-28T07:13:49.392Z,7.04
2022-09-28T07:14:47.192Z,7.12
2022-09-28T07:15:42.429Z,7.2
2022-09-28T07:17:07.557Z,7.04
2022-09-28T07:17:51.358Z,6.88
2022-09-28T07:18:42.790Z,6.88
2022-09-28T07:19:42.883Z,6.88
2022-09-28T07:20:50.085Z,6.88
2022-09-28T07:21:43.455Z,6.8
2022-09-28T07:22:43.926Z,6.88
2022-09-28T07:23:52.087Z,7.04
2022-09-28T07:24:43.598Z,7.04
2022-09-28T07:25:43.746Z,7.04
2022-09-28T07:26:43.849Z,7.12
2022-09-28T07:27:43.944Z,7.28
2022-09-28T07:28:44.048Z,7.04
2022-09-28T07:29:44.153Z,7.04
2022-09-28T07:30:44.425Z,6.88
2022-09-28T07:31:44.452Z,7.04
2022-09-28T07:32:44.558Z,7.04
2022-09-28T07:33:44.660Z,7.04
2022-09-28T07:34:44.814Z,6.88
2022-09-28T07:35:44.914Z,6.88
2022-09-28T07:36:45.019Z,7.04
2022-09-28T07:37:45.122Z,7.12
2022-09-28T07:38:45.265Z,7.2
2022-09-28T07:39:45.368Z,7.2
2022-09-28T07:40:48.221Z,7.12
2022-09-28T07:41:45.676Z,7.12
2022-09-28T07:42:45.827Z,7.04
2022-09-28T07:43:45.943Z,6.88
2022-09-28T07:44:46.076Z,6.88
2022-09-28T07:45:46.210Z,6.88
2022-09-28T07:46:46.305Z,6.88
2022-09-28T07:47:46.387Z,6.88
2022-09-28T07:48:46.488Z,6.88
2022-09-28T07:49:46.638Z,6.88
2022-09-28T07:50:46.736Z,6.88
2022-09-28T07:51:46.889Z,6.88
2022-09-28T07:52:46.992Z,7.04
2022-09-28T07:53:47.143Z,6.88
2022-09-28T07:54:47.240Z,6.88
2022-09-28T07:55:47.349Z,6.88
2022-09-28T07:56:47.444Z,6.8
2022-09-28T07:57:47.546Z,6.88
2022-09-28T07:58:47.651Z,6.88
2022-09-28T07:59:47.757Z,6.88
2022-09-28T08:00:47.950Z,7.04
2022-09-28T08:01:48.029Z,7.04
2022-09-28T08:02:48.289Z,7.04
2022-09-28T08:03:48.264Z,7.12
2022-09-28T08:04:48.361Z,7.28
2022-09-28T08:05:48.463Z,7.12
2022-09-28T08:06:48.612Z,7.12
2022-09-28T08:07:48.719Z,7.04
2022-09-28T08:08:48.870Z,7.04
2022-09-28T08:09:48.979Z,7.04
2022-09-28T08:10:49.118Z,7.04
2022-09-28T08:11:49.177Z,7.04
2022-09-28T08:12:49.286Z,7.04
2022-09-28T08:13:49.377Z,7.12
2022-09-28T08:14:49.530Z,7.2
2022-09-28T08:15:49.679Z,7.12
2022-09-28T08:16:50.823Z,7.44
2022-09-28T08:17:49.932Z,7.6
2022-09-28T08:18:50.033Z,7.2
2022-09-28T08:19:50.135Z,7.2
2022-09-28T08:20:51.551Z,7.12
2022-09-28T08:21:50.392Z,7.12
2022-09-28T08:22:50.539Z,7.12
2022-09-28T08:23:50.643Z,7.12
2022-09-28T08:24:50.745Z,7.12
2022-09-28T08:25:50.845Z,7.12
2022-09-28T08:26:50.947Z,7.12
2022-09-28T08:27:51.052Z,7.12
2022-09-28T08:28:51.156Z,7.2
2022-09-28T08:29:51.299Z,7.44
2022-09-28T08:30:51.541Z,7.28
2022-09-28T08:31:51.612Z,7.2
2022-09-28T08:32:51.719Z,7.2
2022-09-28T08:33:51.862Z,7.2
2022-09-28T08:34:51.969Z,7.12
2022-09-28T08:35:52.061Z,7.2
2022-09-28T08:36:52.172Z,7.28
2022-09-28T08:37:55.225Z,7.2
2022-09-28T08:38:52.424Z,7.28
2022-09-28T08:39:52.535Z,7.44
2022-09-28T08:40:52.710Z,7.28
2022-09-28T08:41:52.822Z,7.28
2022-09-28T08:42:52.934Z,7.44
2022-09-28T08:43:53.032Z,7.52
2022-09-28T08:44:53.181Z,7.28
2022-09-28T08:45:53.302Z,7.44
2022-09-28T08:46:53.382Z,7.44
2022-09-28T08:47:53.484Z,7.44
2022-09-28T08:49:13.264Z,7.52
2022-09-28T08:50:53.940Z,7.52
2022-09-28T08:51:54.088Z,7.6
2022-09-28T08:52:54.197Z,7.68
2022-09-28T08:53:54.296Z,7.84
2022-09-28T08:54:54.445Z,7.92
2022-09-28T08:55:54.606Z,7.84
2022-09-28T08:56:54.709Z,7.84
2022-09-28T08:57:54.845Z,7.84
2022-09-28T08:58:54.960Z,7.6
2022-09-28T08:59:55.101Z,7.68
2022-09-28T09:00:55.309Z,7.68
2022-09-28T09:01:57.471Z,7.84
2022-09-28T09:02:55.541Z,7.68
2022-09-28T09:03:55.610Z,7.6
2022-09-28T09:04:55.765Z,7.68
2022-09-28T09:05:55.863Z,7.68
2022-09-28T09:06:56.016Z,7.68
2022-09-28T09:07:56.118Z,7.84
2022-09-28T09:08:56.229Z,7.84
2022-09-28T09:09:56.376Z,7.68
2022-09-28T09:10:56.526Z,7.84
2022-09-28T09:11:56.675Z,7.84
2022-09-28T09:12:56.778Z,7.68
2022-09-28T09:13:56.886Z,7.68
2022-09-28T09:14:56.998Z,7.92
2022-09-28T09:15:57.130Z,7.92
2022-09-28T09:16:59.896Z,8.08
2022-09-28T09:17:57.394Z,8.08
2022-09-28T09:18:57.491Z,8.4
2022-09-28T09:19:57.593Z,8.32
2022-09-28T09:20:57.695Z,8.4
2022-09-28T09:21:57.792Z,8.48
2022-09-28T09:22:57.895Z,8.639999
2022-09-28T09:23:58.046Z,8.48
2022-09-28T09:24:58.148Z,8.72
2022-09-28T09:25:58.300Z,9.04
2022-09-28T09:26:58.450Z,9.12
2022-09-28T09:27:58.552Z,9.12
2022-09-28T09:28:58.704Z,9.2
2022-09-28T09:29:58.803Z,9.28
2022-09-28T09:30:58.968Z,9.28
2022-09-28T09:31:59.060Z,9.12
2022-09-28T09:32:59.162Z,9.04
2022-09-28T09:33:59.314Z,9.36
2022-09-28T09:34:59.414Z,9.36
2022-09-28T09:35:59.566Z,9.52
2022-09-28T09:36:59.715Z,9.599999
2022-09-28T09:37:59.884Z,9.36
2022-09-28T09:38:59.995Z,9.599999
2022-09-28T09:40:00.175Z,9.599999
2022-09-28T09:41:00.385Z,9.679999
2022-09-28T09:42:00.436Z,9.84
2022-09-28T09:43:00.589Z,9.84
2022-09-28T09:44:00.732Z,9.84
2022-09-28T09:45:00.886Z,9.84
2022-09-28T09:46:01.078Z,9.92
2022-09-28T09:47:01.185Z,9.84
2022-09-28T09:48:01.290Z,9.84
2022-09-28T09:49:01.393Z,10
2022-09-28T09:50:04.000Z,9.92
2022-09-28T09:51:01.699Z,9.92
2022-09-28T09:52:01.792Z,9.92
2022-09-28T09:53:01.898Z,9.92
2022-09-28T09:54:02.004Z,10
2022-09-28T09:55:02.158Z,9.84
2022-09-28T09:56:02.305Z,9.679999
2022-09-28T09:57:02.409Z,9.599999
2022-09-28T09:58:02.555Z,9.599999
2022-09-28T09:59:02.656Z,9.599999
2022-09-28T10:00:02.758Z,9.52
2022-09-28T10:01:02.946Z,9.599999
2022-09-28T10:02:03.140Z,9.52
2022-09-28T10:03:03.215Z,9.2
2022-09-28T10:04:03.365Z,9.12
2022-09-28T10:05:03.474Z,9.28
2022-09-28T10:06:03.570Z,9.2
2022-09-28T10:07:03.667Z,9.2
2022-09-28T10:08:03.791Z,9.04
2022-09-28T10:09:03.927Z,9.12
2022-09-28T10:10:04.024Z,8.72
2022-09-28T10:11:04.177Z,8.32
2022-09-28T10:12:04.280Z,8
2022-09-28T10:13:04.383Z,7.92
2022-09-28T10:14:04.530Z,7.84
2022-09-28T10:15:04.682Z,7.84
2022-09-28T10:16:04.831Z,8.08
2022-09-28T10:17:04.958Z,8.08
2022-09-28T10:18:05.092Z,8.24
2022-09-28T10:19:05.229Z,8.24
2022-09-28T10:20:05.341Z,8.24
2022-09-28T10:21:05.455Z,8.32
2022-09-28T10:22:05.636Z,8.4
2022-09-28T10:23:05.699Z,8.4
2022-09-28T10:24:05.896Z,8.4
2022-09-28T10:25:05.999Z,8.72
2022-09-28T10:26:06.107Z,8.72
2022-09-28T10:27:06.254Z,8.88
2022-09-28T10:28:06.402Z,9.04
2022-09-28T10:29:06.562Z,9.36
2022-09-28T10:30:06.762Z,10.4
2022-09-28T10:32:06.967Z,11.04
2022-09-28T10:33:07.114Z,10.8
2022-09-28T10:34:07.268Z,11.28
2022-09-28T10:35:07.365Z,10.8
2022-09-28T10:36:07.470Z,11.04
2022-09-28T10:37:07.569Z,10.639999
2022-09-28T10:38:07.723Z,10.719999
2022-09-28T10:39:07.880Z,10.8
2022-09-28T10:40:07.974Z,10.4
2022-09-28T10:41:08.186Z,10
2022-09-28T10:42:08.240Z,10.08
2022-09-28T10:43:08.390Z,9.599999
2022-09-28T10:44:08.484Z,9.36
2022-09-28T10:45:08.672Z,9.36
2022-09-28T10:46:08.782Z,9.28
2022-09-28T10:47:08.865Z,9.28
2022-09-28T10:48:08.992Z,9.2
2022-09-28T10:49:09.307Z,9.28
2022-09-28T10:50:09.445Z,9.84
2022-09-28T10:51:09.551Z,9.92
2022-09-28T10:52:09.697Z,10.24
2022-09-28T10:53:09.848Z,10.08
2022-09-28T10:54:09.997Z,10
2022-09-28T10:55:10.102Z,9.92
2022-09-28T10:56:10.257Z,10
2022-09-28T10:57:13.426Z,9.84
2022-09-28T10:58:10.559Z,9.599999
2022-09-28T10:59:10.661Z,9.679999
2022-09-28T11:00:10.769Z,9.92
2022-09-28T11:01:10.944Z,10
2022-09-28T11:02:11.010Z,10.48
2022-09-28T11:03:11.116Z,10.48
2022-09-28T11:04:11.259Z,10.32
2022-09-28T11:05:11.374Z,10.639999
2022-09-28T11:06:11.467Z,10.639999
2022-09-28T11:07:12.440Z,10.48
2022-09-28T11:08:11.723Z,10.4
2022-09-28T11:09:11.825Z,10.4
2022-09-28T11:10:11.976Z,10
2022-09-28T11:11:12.128Z,9.679999
2022-09-28T11:12:12.278Z,9.599999
2022-09-28T11:13:12.392Z,9.36
2022-09-28T11:14:12.483Z,9.12
2022-09-28T11:15:12.584Z,9.04
2022-09-28T11:16:12.817Z,9.04
2022-09-28T11:17:12.890Z,9.04
2022-09-28T11:18:13.050Z,9.04
2022-09-28T11:19:13.161Z,8.88
2022-09-28T11:20:13.321Z,8.88
2022-09-28T11:21:13.406Z,8.88
2022-09-28T11:22:14.030Z,9.12
2022-09-28T11:23:13.679Z,9.2
2022-09-28T11:24:18.146Z,9.679999
2022-09-28T11:25:13.907Z,10.24
2022-09-28T11:26:18.263Z,10.88
2022-09-28T11:27:14.157Z,10.88
2022-09-28T11:28:14.311Z,11.04
2022-09-28T11:29:14.425Z,11.44
2022-09-28T11:30:14.559Z,11.28
2022-09-28T11:31:14.799Z,11.2
2022-09-28T11:32:15.802Z,11.2
2022-09-28T11:33:15.017Z,11.12
2022-09-28T11:34:15.122Z,11.2
2022-09-28T11:35:15.220Z,11.04
2022-09-28T11:36:15.327Z,11.2
2022-09-28T11:37:15.422Z,11.04
2022-09-28T11:38:15.532Z,10.88
2022-09-28T11:39:15.653Z,11.04
2022-09-28T11:40:15.870Z,11.52
2022-09-28T11:41:15.885Z,11.92
2022-09-28T11:42:16.547Z,12.32
2022-09-28T11:43:16.699Z,12.24
2022-09-28T11:44:16.332Z,11.599999
2022-09-28T11:45:16.416Z,11.52
2022-09-28T11:46:16.660Z,11.679999
2022-09-28T11:47:16.671Z,12.4
2022-09-28T11:48:16.792Z,12.24
2022-09-28T11:49:16.890Z,11.679999
2022-09-28T11:50:20.078Z,11.599999
2022-09-28T11:51:17.148Z,11.84
2022-09-28T11:52:17.299Z,11.599999
2022-09-28T11:53:17.451Z,11.28
2022-09-28T11:54:17.688Z,11.44
2022-09-28T11:55:17.707Z,11.679999
2022-09-28T11:56:17.806Z,11.599999
2022-09-28T11:57:17.909Z,11.679999
2022-09-28T11:58:18.009Z,11.44
2022-09-28T11:59:18.160Z,11.2
2022-09-28T12:00:18.314Z,11.44
2022-09-28T12:01:19.115Z,11.52
2022-09-28T12:02:18.746Z,11.92
2022-09-28T12:03:18.917Z,11.679999
2022-09-28T12:04:19.036Z,11.599999
2022-09-28T12:05:20.816Z,11.12
2022-09-28T12:06:19.084Z,11.04
2022-09-28T12:07:19.231Z,10.8
2022-09-28T12:08:19.332Z,10.719999
2022-09-28T12:09:19.530Z,10.48
2022-09-28T12:10:19.583Z,10.08
2022-09-28T12:11:19.686Z,9.679999
2022-09-28T12:12:19.831Z,9.04
2022-09-28T12:13:19.987Z,8.72
2022-09-28T12:14:20.089Z,8.72
2022-09-28T12:15:20.190Z,8.72
2022-09-28T12:16:45.517Z,8.639999
2022-09-28T12:17:20.573Z,8.72
2022-09-28T12:18:20.594Z,8.8
2022-09-28T12:19:20.698Z,8.88
2022-09-28T12:20:20.845Z,9.04
2022-09-28T12:21:20.997Z,9.36
2022-09-28T12:22:21.102Z,9.679999
2022-09-28T12:23:21.212Z,9.92
2022-09-28T12:24:21.324Z,10
2022-09-28T12:25:21.422Z,9.84
2022-09-28T12:26:21.555Z,9.679999
2022-09-28T12:27:21.669Z,9.84
2022-09-28T12:28:21.771Z,9.679999
2022-09-28T12:29:21.911Z,9.679999
2022-09-28T12:30:22.017Z,9.84
2022-09-28T12:31:22.236Z,9.679999
2022-09-28T12:32:22.272Z,9.599999
2022-09-28T12:33:22.422Z,9.679999
2022-09-28T12:34:22.608Z,9.599999
2022-09-28T12:35:22.725Z,9.599999
2022-09-28T12:36:22.874Z,9.679999
2022-09-28T12:37:22.972Z,9.84
2022-09-28T12:38:23.077Z,9.599999
2022-09-28T12:39:31.285Z,9.52
2022-09-28T12:40:23.413Z,9.36
2022-09-28T12:41:23.435Z,9.679999
2022-09-28T12:42:23.534Z,10.24
2022-09-28T12:43:23.693Z,10.719999
2022-09-28T12:44:23.793Z,11.04
2022-09-28T12:45:23.889Z,10.719999
2022-09-28T12:46:24.099Z,10.639999
2022-09-28T12:47:24.209Z,10.8
2022-09-28T12:48:24.343Z,10.8
2022-09-28T12:50:07.523Z,10.48
2022-09-28T12:51:24.701Z,10.48
2022-09-28T12:52:24.856Z,10.8
2022-09-28T12:53:24.964Z,10.48
2022-09-28T12:54:25.064Z,10.4
2022-09-28T12:55:25.209Z,10.32
2022-09-28T12:56:25.312Z,10.639999
2022-09-28T12:57:25.414Z,10.639999
2022-09-28T12:58:25.521Z,10.4
2022-09-28T12:59:25.614Z,10.4
2022-09-28T13:00:25.720Z,10.08
2022-09-28T13:01:25.930Z,10
2022-09-28T13:02:26.063Z,9.84
2022-09-28T13:03:26.125Z,9.84
2022-09-28T13:04:26.274Z,9.92
2022-09-28T13:05:26.432Z,9.84
2022-09-28T13:06:26.589Z,10.08
2022-09-28T13:07:26.725Z,10.08
2022-09-28T13:08:26.834Z,10.639999
2022-09-28T13:09:26.931Z,11.599999
2022-09-28T13:10:27.084Z,12
2022-09-28T13:11:27.183Z,12.719999
2022-09-28T13:12:27.289Z,12.24
2022-09-28T13:13:27.453Z,12.48
2022-09-28T13:14:27.541Z,12.24
2022-09-28T13:15:27.691Z,12.799999
2022-09-28T13:16:27.923Z,13.679999
2022-09-28T13:17:27.946Z,13.679999
2022-09-28T13:18:28.046Z,13.2
2022-09-28T13:19:28.197Z,12.24